createdAt,value
2018-04-27T00:00:01.035Z,52.31
2018-04-27T00:01:01.027Z,54.99
2018-04-27T00:02:01.020Z,55.84
2018-04-27T00:03:01.006Z,54.13
2018-04-27T00:04:00.999Z,52.79
2018-04-27T00:05:00.987Z,54.13
2018-04-27T00:06:00.975Z,52.88
2018-04-27T00:07:00.965Z,52.79
2018-04-27T00:08:00.954Z,52.69
2018-04-27T00:09:00.946Z,54.79
2018-04-27T00:10:00.942Z,53.65
2018-04-27T00:11:00.925Z,52.59
2018-04-27T00:12:00.914Z,56.13
2018-04-27T00:13:00.904Z,54.70
2018-04-27T00:14:00.895Z,52.98
2018-04-27T00:15:00.885Z,53.74
2018-04-27T00:16:00.875Z,53.45
2018-04-27T00:17:00.867Z,52.69
2018-04-27T00:18:00.855Z,50.88
2018-04-27T00:19:00.846Z,51.26
2018-04-27T00:20:00.835Z,51.17
2018-04-27T00:21:00.826Z,51.17
2018-04-27T00:22:00.816Z,51.26
2018-04-27T00:23:00.806Z,50.98
2018-04-27T00:24:00.794Z,50.69
2018-04-27T00:25:00.785Z,50.95
2018-04-27T00:26:00.774Z,50.85
2018-04-27T00:27:00.764Z,51.43
2018-04-27T00:28:00.755Z,50.85
2018-04-27T00:29:00.744Z,50.95
2018-04-27T00:30:00.736Z,50.85
2018-04-27T00:31:00.724Z,51.33
2018-04-27T00:32:00.713Z,51.52
2018-04-27T00:33:00.705Z,51.81
2018-04-27T00:34:00.695Z,51.33
2018-04-27T00:35:00.684Z,51.33
2018-04-27T00:36:00.673Z,51.33
2018-04-27T00:37:00.665Z,50.85
2018-04-27T00:38:00.654Z,50.95
2018-04-27T00:39:00.645Z,51.23
2018-04-27T00:40:00.632Z,51.62
2018-04-27T00:41:00.626Z,51.52
2018-04-27T00:42:00.612Z,51.81
2018-04-27T00:43:00.604Z,53.33
2018-04-27T00:44:00.597Z,52.57
2018-04-27T00:45:00.586Z,52.09
2018-04-27T00:46:00.572Z,51.81
2018-04-27T00:47:00.565Z,51.90
2018-04-27T00:48:00.549Z,51.78
2018-04-27T00:49:00.541Z,51.88
2018-04-27T00:50:00.530Z,52.64
2018-04-27T00:51:00.521Z,52.73
2018-04-27T00:52:00.511Z,52.73
2018-04-27T00:53:00.499Z,52.36
2018-04-27T00:54:00.488Z,51.97
2018-04-27T00:55:00.478Z,52.07
2018-04-27T00:56:00.468Z,52.07
2018-04-27T00:57:00.456Z,52.64
2018-04-27T00:58:00.447Z,52.45
2018-04-27T00:59:00.438Z,52.36
2018-04-27T01:00:00.428Z,53.78
2018-04-27T01:01:00.417Z,55.69
2018-04-27T01:02:00.407Z,53.97
2018-04-27T01:03:00.393Z,52.73
2018-04-27T01:04:00.382Z,51.78
2018-04-27T01:05:00.373Z,52.64
2018-04-27T01:06:00.362Z,53.41
2018-04-27T01:07:00.352Z,52.26
2018-04-27T01:08:00.340Z,52.73
2018-04-27T01:09:00.331Z,52.73
2018-04-27T01:10:00.318Z,52.26
2018-04-27T01:11:00.310Z,54.74
2018-04-27T01:12:00.299Z,53.59
2018-04-27T01:13:00.289Z,54.17
2018-04-27T01:14:00.276Z,53.78
2018-04-27T01:15:00.266Z,53.12
2018-04-27T01:16:00.255Z,53.02
2018-04-27T01:17:00.244Z,53.88
2018-04-27T01:18:00.239Z,54.55
2018-04-27T01:19:00.225Z,53.69
2018-04-27T01:20:00.211Z,53.21
2018-04-27T01:21:00.201Z,54.17
2018-04-27T01:22:00.190Z,53.59
2018-04-27T01:23:00.180Z,54.07
2018-04-27T01:24:00.168Z,53.78
2018-04-27T01:25:00.158Z,54.36
2018-04-27T01:26:00.146Z,54.83
2018-04-27T01:27:00.137Z,54.17
2018-04-27T01:28:00.124Z,53.78
2018-04-27T01:29:00.117Z,54.17
2018-04-27T01:30:00.105Z,53.88
2018-04-27T01:31:00.092Z,53.88
2018-04-27T01:32:00.081Z,53.78
2018-04-27T01:33:00.070Z,53.69
2018-04-27T01:34:00.061Z,53.50
2018-04-27T01:35:00.050Z,53.69
2018-04-27T01:36:00.037Z,54.17
2018-04-27T01:37:00.025Z,54.07
2018-04-27T01:38:00.015Z,53.59
2018-04-27T01:39:00.006Z,53.59
2018-04-27T01:39:59.991Z,53.59
2018-04-27T01:40:59.980Z,53.38
2018-04-27T01:41:59.972Z,53.59
2018-04-27T01:42:59.964Z,53.31
2018-04-27T01:43:59.950Z,53.78
2018-04-27T01:44:59.939Z,53.78
2018-04-27T01:45:59.927Z,53.76
2018-04-27T01:46:59.918Z,54.74
2018-04-27T01:47:59.908Z,54.17
2018-04-27T01:48:59.895Z,53.85
2018-04-27T01:49:59.886Z,53.76
2018-04-27T01:50:59.874Z,54.14
2018-04-27T01:51:59.863Z,54.14
2018-04-27T01:52:59.851Z,53.95
2018-04-27T01:53:59.839Z,54.04
2018-04-27T01:54:59.829Z,54.52
2018-04-27T01:55:59.818Z,54.43
2018-04-27T01:56:59.809Z,54.24
2018-04-27T01:57:59.796Z,54.61
2018-04-27T01:58:59.786Z,54.71
2018-04-27T01:59:59.774Z,55.19
2018-04-27T02:00:59.769Z,55.00
2018-04-27T02:01:59.750Z,54.80
2018-04-27T02:02:59.743Z,56.90
2018-04-27T02:03:59.727Z,58.04
2018-04-27T02:04:59.718Z,56.52
2018-04-27T02:05:59.707Z,55.47
2018-04-27T02:06:59.697Z,54.90
2018-04-27T02:07:59.683Z,54.90
2018-04-27T02:08:59.674Z,55.66
2018-04-27T02:09:59.661Z,55.19
2018-04-27T02:10:59.649Z,55.76
2018-04-27T02:11:59.641Z,55.66
2018-04-27T02:12:59.625Z,55.66
2018-04-27T02:13:59.616Z,55.76
2018-04-27T02:14:59.609Z,55.85
2018-04-27T02:15:59.592Z,55.38
2018-04-27T02:16:59.582Z,55.57
2018-04-27T02:17:59.571Z,55.57
2018-04-27T02:18:59.561Z,55.38
2018-04-27T02:19:59.547Z,56.43
2018-04-27T02:20:59.544Z,56.24
2018-04-27T02:21:59.526Z,56.43
2018-04-27T02:22:59.515Z,56.24
2018-04-27T02:23:59.505Z,55.95
2018-04-27T02:24:59.492Z,56.33
2018-04-27T02:25:59.481Z,56.52
2018-04-27T02:26:59.468Z,57.09
2018-04-27T02:27:59.459Z,57.86
2018-04-27T02:28:59.448Z,63.20
2018-04-27T02:29:59.435Z,63.48
2018-04-27T02:30:59.423Z,61.48
2018-04-27T02:31:59.415Z,58.33
2018-04-27T02:32:59.400Z,58.24
2018-04-27T02:33:59.388Z,57.19
2018-04-27T02:34:59.375Z,57.09
2018-04-27T02:35:59.365Z,57.38
2018-04-27T02:36:59.356Z,57.67
2018-04-27T02:37:59.342Z,58.81
2018-04-27T02:38:59.331Z,59.86
2018-04-27T02:39:59.321Z,58.33
2018-04-27T02:40:59.308Z,57.28
2018-04-27T02:41:59.294Z,57.73
2018-04-27T02:42:59.283Z,61.16
2018-04-27T02:43:59.272Z,58.30
2018-04-27T02:44:59.268Z,58.21
2018-04-27T02:45:59.250Z,60.72
2018-04-27T02:46:59.239Z,59.54
2018-04-27T02:47:59.227Z,59.06
2018-04-27T02:48:59.212Z,58.50
2018-04-27T02:49:59.204Z,58.21
2018-04-27T02:50:59.191Z,60.97
2018-04-27T02:51:59.182Z,61.07
2018-04-27T02:52:59.168Z,60.02
2018-04-27T02:53:59.155Z,60.88
2018-04-27T02:54:59.149Z,64.78
2018-04-27T02:55:59.135Z,62.88
2018-04-27T02:56:59.127Z,64.40
2018-04-27T02:57:59.112Z,63.10
2018-04-27T02:58:59.101Z,60.11
2018-04-27T02:59:59.091Z,61.54
2018-04-27T03:00:59.078Z,61.35
2018-04-27T03:01:59.066Z,62.30
2018-04-27T03:02:59.052Z,63.35
2018-04-27T03:03:59.043Z,64.31
2018-04-27T03:04:59.034Z,61.54
2018-04-27T03:05:59.027Z,60.59
2018-04-27T03:06:59.019Z,64.59
2018-04-27T03:07:58.997Z,63.07
2018-04-27T03:08:58.984Z,62.68
2018-04-27T03:09:58.973Z,61.54
2018-04-27T03:10:58.968Z,62.30
2018-04-27T03:11:58.949Z,62.68
2018-04-27T03:12:58.939Z,62.21
2018-04-27T03:13:58.927Z,60.78
2018-04-27T03:14:58.914Z,60.78
2018-04-27T03:15:58.905Z,63.35
2018-04-27T03:16:58.891Z,63.54
2018-04-27T03:17:58.881Z,62.59
2018-04-27T03:18:58.872Z,62.49
2018-04-27T03:19:58.857Z,59.74
2018-04-27T03:20:58.846Z,59.45
2018-04-27T03:21:58.834Z,63.26
2018-04-27T03:22:58.822Z,61.73
2018-04-27T03:23:58.840Z,62.02
2018-04-27T03:24:58.799Z,60.88
2018-04-27T03:25:58.786Z,59.26
2018-04-27T03:26:58.774Z,58.69
2018-04-27T03:27:58.765Z,58.59
2018-04-27T03:28:58.752Z,58.78
2018-04-27T03:29:58.744Z,60.88
2018-04-27T03:30:58.732Z,59.74
2018-04-27T03:31:58.718Z,59.61
2018-04-27T03:32:58.705Z,60.18
2018-04-27T03:33:58.697Z,59.83
2018-04-27T03:34:58.688Z,59.74
2018-04-27T03:35:58.672Z,61.04
2018-04-27T03:36:58.660Z,60.37
2018-04-27T03:37:58.649Z,59.99
2018-04-27T03:38:58.636Z,59.80
2018-04-27T03:39:58.623Z,59.70
2018-04-27T03:40:58.613Z,59.99
2018-04-27T03:41:58.600Z,60.66
2018-04-27T03:42:58.593Z,60.66
2018-04-27T03:43:58.577Z,60.27
2018-04-27T03:44:58.564Z,59.80
2018-04-27T03:45:58.555Z,59.51
2018-04-27T03:46:58.540Z,59.70
2018-04-27T03:47:58.528Z,59.70
2018-04-27T03:48:58.513Z,59.99
2018-04-27T03:49:58.503Z,59.70
2018-04-27T03:50:58.493Z,59.99
2018-04-27T03:51:58.547Z,59.99
2018-04-27T03:52:58.467Z,59.42
2018-04-27T03:53:58.456Z,59.51
2018-04-27T03:54:58.444Z,59.80
2018-04-27T03:55:58.433Z,59.42
2018-04-27T03:56:58.429Z,59.70
2018-04-27T03:57:58.410Z,59.89
2018-04-27T03:58:58.401Z,59.99
2018-04-27T03:59:58.383Z,60.08
2018-04-27T04:00:58.371Z,59.99
2018-04-27T04:01:58.361Z,60.85
2018-04-27T04:02:58.350Z,61.51
2018-04-27T04:03:58.333Z,62.08
2018-04-27T04:04:58.322Z,61.61
2018-04-27T04:05:58.310Z,61.80
2018-04-27T04:06:58.296Z,64.37
2018-04-27T04:07:58.287Z,66.08
2018-04-27T04:08:58.273Z,64.28
2018-04-27T04:09:58.262Z,65.32
2018-04-27T04:10:58.248Z,65.99
2018-04-27T04:11:58.236Z,64.47
2018-04-27T04:12:58.222Z,63.89
2018-04-27T04:13:58.210Z,64.28
2018-04-27T04:14:58.200Z,64.18
2018-04-27T04:15:58.184Z,64.65
2018-04-27T04:16:58.174Z,63.42
2018-04-27T04:17:58.164Z,63.13
2018-04-27T04:18:58.151Z,65.42
2018-04-27T04:19:58.137Z,63.23
2018-04-27T04:20:58.128Z,63.32
2018-04-27T04:21:58.114Z,61.70
2018-04-27T04:22:58.105Z,61.51
2018-04-27T04:23:58.087Z,63.32
2018-04-27T04:24:58.074Z,61.70
2018-04-27T04:25:58.064Z,60.94
2018-04-27T04:26:58.051Z,61.70
2018-04-27T04:27:58.040Z,60.56
2018-04-27T04:28:58.031Z,60.94
2018-04-27T04:29:58.012Z,63.04
2018-04-27T04:30:58.002Z,64.08
2018-04-27T04:31:57.988Z,62.37
2018-04-27T04:32:57.981Z,61.90
2018-04-27T04:33:57.965Z,65.51
2018-04-27T04:34:57.957Z,65.23
2018-04-27T04:35:57.939Z,64.84
2018-04-27T04:36:57.928Z,65.42
2018-04-27T04:37:57.916Z,65.32
2018-04-27T04:38:57.904Z,63.23
2018-04-27T04:39:57.892Z,64.28
2018-04-27T04:40:57.880Z,64.08
2018-04-27T04:41:57.866Z,60.94
2018-04-27T04:42:57.853Z,62.18
2018-04-27T04:43:57.844Z,61.51
2018-04-27T04:44:57.832Z,62.85
2018-04-27T04:45:57.819Z,63.32
2018-04-27T04:46:57.807Z,62.27
2018-04-27T04:47:57.793Z,64.02
2018-04-27T04:48:57.782Z,61.54
2018-04-27T04:49:57.769Z,61.64
2018-04-27T04:50:57.758Z,62.81
2018-04-27T04:51:57.746Z,60.14
2018-04-27T04:52:57.735Z,56.93
2018-04-27T04:53:57.721Z,57.63
2018-04-27T04:54:57.712Z,59.16
2018-04-27T04:55:57.699Z,55.27
2018-04-27T04:56:57.686Z,55.49
2018-04-27T04:57:57.676Z,54.34
2018-04-27T04:58:57.671Z,52.81
2018-04-27T04:59:57.658Z,52.84
2018-04-27T05:00:57.648Z,50.45
2018-04-27T05:01:57.639Z,50.95
2018-04-27T05:02:57.669Z,51.34
2018-04-27T05:03:57.622Z,49.80
2018-04-27T05:04:57.603Z,49.43
2018-04-27T05:05:57.599Z,52.01
2018-04-27T05:06:57.585Z,51.24
2018-04-27T05:07:57.576Z,49.55
2018-04-27T05:08:57.564Z,48.38
2018-04-27T05:09:57.561Z,49.80
2018-04-27T05:10:57.550Z,50.86
2018-04-27T05:11:57.535Z,52.01
2018-04-27T05:12:57.522Z,51.15
2018-04-27T05:13:57.519Z,50.86
2018-04-27T05:14:57.507Z,52.48
2018-04-27T05:15:57.493Z,53.53
2018-04-27T05:16:57.483Z,52.84
2018-04-27T05:17:57.474Z,54.18
2018-04-27T05:18:57.465Z,55.04
2018-04-27T05:19:57.455Z,53.13
2018-04-27T05:20:57.446Z,50.84
2018-04-27T05:21:57.436Z,51.89
2018-04-27T05:22:57.425Z,51.70
2018-04-27T05:23:57.416Z,50.55
2018-04-27T05:24:57.404Z,51.21
2018-04-27T05:25:57.397Z,50.04
2018-04-27T05:26:57.387Z,50.62
2018-04-27T05:27:57.374Z,50.81
2018-04-27T05:28:57.370Z,51.19
2018-04-27T05:29:57.360Z,50.31
2018-04-27T05:30:57.352Z,51.07
2018-04-27T05:31:57.337Z,51.64
2018-04-27T05:32:57.329Z,52.03
2018-04-27T05:33:57.319Z,53.33
2018-04-27T05:34:57.308Z,53.72
2018-04-27T05:35:57.302Z,54.10
2018-04-27T05:36:57.289Z,53.97
2018-04-27T05:37:57.337Z,54.36
2018-04-27T05:38:57.272Z,55.69
2018-04-27T05:39:57.259Z,55.31
2018-04-27T05:40:57.250Z,55.12
2018-04-27T05:41:57.239Z,55.50
2018-04-27T05:42:57.231Z,55.88
2018-04-27T05:43:57.219Z,56.46
2018-04-27T05:44:57.212Z,56.26
2018-04-27T05:45:57.200Z,56.36
2018-04-27T05:46:57.195Z,56.46
2018-04-27T05:47:57.180Z,56.65
2018-04-27T05:48:57.173Z,56.46
2018-04-27T05:49:57.158Z,56.26
2018-04-27T05:50:57.147Z,56.46
2018-04-27T05:51:57.136Z,56.55
2018-04-27T05:52:57.129Z,56.46
2018-04-27T05:53:57.119Z,56.17
2018-04-27T05:54:57.113Z,56.07
2018-04-27T05:55:57.103Z,57.22
2018-04-27T05:56:57.093Z,56.55
2018-04-27T05:57:57.077Z,56.65
2018-04-27T05:58:57.067Z,56.26
2018-04-27T05:59:57.055Z,57.41
2018-04-27T06:00:57.048Z,56.84
2018-04-27T06:01:57.035Z,56.29
2018-04-27T06:02:57.025Z,57.63
2018-04-27T06:03:57.015Z,57.82
2018-04-27T06:04:57.003Z,57.24
2018-04-27T06:05:56.994Z,56.96
2018-04-27T06:06:56.984Z,57.92
2018-04-27T06:07:56.975Z,59.06
2018-04-27T06:08:56.964Z,58.70
2018-04-27T06:09:56.955Z,56.60
2018-04-27T06:10:56.945Z,56.70
2018-04-27T06:11:56.936Z,57.18
2018-04-27T06:12:56.924Z,57.24
2018-04-27T06:13:56.914Z,57.72
2018-04-27T06:14:56.906Z,58.48
2018-04-27T06:15:56.892Z,57.92
2018-04-27T06:16:56.897Z,58.11
2018-04-27T06:17:56.881Z,58.29
2018-04-27T06:18:56.864Z,58.48
2018-04-27T06:19:56.858Z,58.77
2018-04-27T06:20:56.840Z,58.68
2018-04-27T06:21:56.841Z,59.06
2018-04-27T06:22:56.824Z,58.87
2018-04-27T06:23:56.812Z,58.77
2018-04-27T06:24:56.800Z,59.25
2018-04-27T06:25:56.798Z,58.77
2018-04-27T06:26:56.784Z,58.20
2018-04-27T06:27:56.771Z,58.77
2018-04-27T06:28:56.761Z,59.34
2018-04-27T06:29:56.753Z,59.34
2018-04-27T06:30:56.744Z,60.21
2018-04-27T06:31:56.736Z,60.49
2018-04-27T06:32:56.721Z,60.75
2018-04-27T06:33:56.712Z,60.84
2018-04-27T06:34:56.700Z,60.84
2018-04-27T06:35:56.696Z,60.36
2018-04-27T06:36:56.683Z,60.21
2018-04-27T06:37:56.671Z,60.21
2018-04-27T06:38:56.662Z,60.39
2018-04-27T06:39:56.648Z,60.21
2018-04-27T06:40:56.641Z,60.21
2018-04-27T06:41:56.629Z,59.82
2018-04-27T06:42:56.620Z,60.02
2018-04-27T06:43:56.610Z,60.21
2018-04-27T06:44:56.598Z,59.82
2018-04-27T06:45:56.591Z,60.21
2018-04-27T06:46:56.580Z,60.11
2018-04-27T06:47:56.570Z,59.92
2018-04-27T06:48:56.564Z,59.92
2018-04-27T06:49:56.547Z,60.49
2018-04-27T06:50:56.535Z,60.11
2018-04-27T06:51:56.525Z,60.39
2018-04-27T06:52:56.515Z,60.68
2018-04-27T06:53:56.504Z,60.30
2018-04-27T06:54:56.496Z,60.11
2018-04-27T06:55:56.485Z,60.11
2018-04-27T06:56:56.475Z,60.24
2018-04-27T06:57:56.463Z,59.92
2018-04-27T06:58:56.455Z,59.47
2018-04-27T06:59:56.444Z,59.09
2018-04-27T07:00:56.437Z,58.99
2018-04-27T07:01:56.429Z,58.99
2018-04-27T07:02:56.416Z,59.19
2018-04-27T07:03:56.404Z,58.90
2018-04-27T07:04:56.391Z,59.28
2018-04-27T07:05:56.385Z,59.28
2018-04-27T07:06:56.376Z,59.09
2018-04-27T07:07:56.362Z,58.80
2018-04-27T07:08:56.354Z,59.09
2018-04-27T07:09:56.344Z,58.42
2018-04-27T07:10:56.345Z,58.42
2018-04-27T07:11:56.324Z,58.70
2018-04-27T07:12:56.313Z,58.80
2018-04-27T07:13:56.306Z,57.97
2018-04-27T07:14:56.294Z,58.73
2018-04-27T07:15:56.285Z,57.40
2018-04-27T07:16:56.326Z,57.02
2018-04-27T07:17:56.266Z,56.35
2018-04-27T07:18:56.257Z,56.63
2018-04-27T07:19:56.244Z,56.16
2018-04-27T07:20:56.237Z,56.73
2018-04-27T07:21:56.226Z,57.21
2018-04-27T07:22:56.216Z,57.87
2018-04-27T07:23:56.207Z,57.02
2018-04-27T07:24:56.197Z,56.63
2018-04-27T07:25:56.229Z,56.92
2018-04-27T07:26:56.179Z,56.63
2018-04-27T07:27:56.170Z,56.67
2018-04-27T07:28:56.159Z,56.57
2018-04-27T07:29:56.154Z,56.28
2018-04-27T07:30:56.142Z,55.99
2018-04-27T07:31:56.130Z,56.38
2018-04-27T07:32:56.125Z,56.09
2018-04-27T07:33:56.113Z,55.61
2018-04-27T07:34:56.111Z,55.52
2018-04-27T07:35:56.099Z,55.80
2018-04-27T07:36:56.089Z,55.90
2018-04-27T07:37:56.074Z,56.28
2018-04-27T07:38:56.074Z,56.47
2018-04-27T07:39:56.095Z,56.47
2018-04-27T07:40:56.045Z,55.99
2018-04-27T07:41:56.040Z,55.61
2018-04-27T07:42:56.030Z,55.13
2018-04-27T07:43:56.021Z,55.13
2018-04-27T07:44:56.010Z,54.78
2018-04-27T07:45:56.004Z,55.35
2018-04-27T07:46:55.991Z,54.78
2018-04-27T07:47:55.984Z,54.49
2018-04-27T07:48:55.975Z,54.97
2018-04-27T07:49:55.967Z,55.16
2018-04-27T07:50:55.957Z,54.78
2018-04-27T07:51:55.947Z,54.30
2018-04-27T07:52:55.941Z,54.68
2018-04-27T07:53:55.930Z,54.49
2018-04-27T07:54:55.926Z,54.59
2018-04-27T07:55:55.915Z,54.78
2018-04-27T07:56:55.905Z,54.02
2018-04-27T07:57:55.901Z,54.02
2018-04-27T07:58:55.887Z,53.73
2018-04-27T07:59:55.876Z,53.92
2018-04-27T08:00:55.865Z,54.02
2018-04-27T08:01:55.868Z,53.82
2018-04-27T08:02:55.853Z,53.34
2018-04-27T08:03:55.839Z,54.02
2018-04-27T08:04:55.834Z,52.96
2018-04-27T08:05:55.825Z,53.63
2018-04-27T08:06:55.816Z,53.73
2018-04-27T08:07:55.809Z,53.92
2018-04-27T08:08:55.911Z,54.33
2018-04-27T08:09:55.792Z,54.80
2018-04-27T08:10:55.784Z,53.85
2018-04-27T08:11:55.773Z,52.44
2018-04-27T08:12:55.767Z,52.63
2018-04-27T08:13:55.759Z,52.44
2018-04-27T08:14:55.750Z,51.87
2018-04-27T08:15:55.740Z,51.20
2018-04-27T08:16:55.733Z,50.24
2018-04-27T08:17:55.727Z,50.72
2018-04-27T08:18:55.716Z,51.20
2018-04-27T08:19:55.708Z,50.62
2018-04-27T08:20:55.697Z,51.03
2018-04-27T08:21:55.690Z,51.42
2018-04-27T08:22:55.683Z,50.91
2018-04-27T08:23:55.674Z,49.98
2018-04-27T08:24:55.669Z,49.98
2018-04-27T08:25:55.662Z,50.56
2018-04-27T08:26:55.652Z,49.69
2018-04-27T08:27:55.643Z,50.07
2018-04-27T08:28:55.635Z,50.26
2018-04-27T08:29:55.627Z,49.40
2018-04-27T08:30:55.621Z,48.83
2018-04-27T08:31:55.610Z,48.54
2018-04-27T08:32:55.602Z,49.21
2018-04-27T08:33:55.595Z,49.50
2018-04-27T08:34:55.591Z,49.40
2018-04-27T08:35:55.585Z,49.69
2018-04-27T08:36:55.572Z,49.60
2018-04-27T08:37:55.567Z,49.50
2018-04-27T08:38:55.561Z,49.69
2018-04-27T08:39:55.550Z,49.79
2018-04-27T08:40:55.543Z,49.11
2018-04-27T08:41:55.534Z,49.40
2018-04-27T08:42:55.533Z,49.79
2018-04-27T08:43:55.520Z,49.69
2018-04-27T08:44:55.516Z,49.60
2018-04-27T08:45:55.504Z,49.79
2018-04-27T08:46:55.498Z,49.69
2018-04-27T08:47:55.491Z,49.79
2018-04-27T08:48:55.483Z,49.98
2018-04-27T08:49:55.478Z,50.36
2018-04-27T08:50:55.476Z,50.26
2018-04-27T08:51:55.460Z,50.84
2018-04-27T08:52:55.456Z,50.84
2018-04-27T08:53:55.449Z,50.74
2018-04-27T08:54:55.440Z,50.84
2018-04-27T08:55:55.432Z,50.46
2018-04-27T08:56:55.425Z,50.65
2018-04-27T08:57:55.417Z,50.17
2018-04-27T08:58:55.413Z,50.56
2018-04-27T08:59:55.402Z,51.32
2018-04-27T09:00:55.400Z,51.13
2018-04-27T09:01:55.388Z,51.03
2018-04-27T09:02:55.383Z,50.38
2018-04-27T09:03:55.375Z,50.46
2018-04-27T09:04:55.371Z,50.67
2018-04-27T09:05:55.362Z,50.48
2018-04-27T09:06:55.352Z,50.77
2018-04-27T09:07:55.347Z,51.25
2018-04-27T09:08:55.340Z,50.48
2018-04-27T09:09:55.332Z,50.67
2018-04-27T09:10:55.327Z,50.48
2018-04-27T09:11:55.317Z,50.29
2018-04-27T09:12:55.312Z,51.44
2018-04-27T09:13:55.303Z,50.96
2018-04-27T09:14:55.299Z,50.38
2018-04-27T09:15:55.291Z,50.00
2018-04-27T09:16:55.282Z,49.74
2018-04-27T09:17:55.277Z,50.32
2018-04-27T09:18:55.269Z,49.65
2018-04-27T09:19:55.262Z,50.03
2018-04-27T09:20:55.257Z,49.93
2018-04-27T09:21:55.253Z,49.74
2018-04-27T09:22:55.240Z,50.03
2018-04-27T09:23:55.234Z,49.19
2018-04-27T09:24:55.229Z,48.80
2018-04-27T09:25:55.220Z,48.80
2018-04-27T09:26:55.273Z,49.00
2018-04-27T09:27:55.207Z,48.90
2018-04-27T09:28:55.200Z,49.10
2018-04-27T09:29:55.196Z,48.80
2018-04-27T09:30:55.187Z,48.61
2018-04-27T09:31:55.186Z,49.29
2018-04-27T09:32:55.178Z,49.38
2018-04-27T09:33:55.167Z,48.93
2018-04-27T09:34:55.163Z,47.97
2018-04-27T09:35:55.158Z,48.35
2018-04-27T09:36:55.148Z,48.54
2018-04-27T09:37:55.139Z,48.16
2018-04-27T09:38:55.136Z,48.83
2018-04-27T09:39:55.130Z,48.25
2018-04-27T09:40:55.121Z,47.30
2018-04-27T09:41:55.120Z,48.09
2018-04-27T09:42:55.109Z,47.99
2018-04-27T09:43:55.103Z,47.89
2018-04-27T09:44:55.096Z,47.13
2018-04-27T09:45:55.090Z,47.41
2018-04-27T09:46:55.088Z,47.22
2018-04-27T09:47:55.080Z,46.55
2018-04-27T09:48:55.075Z,47.32
2018-04-27T09:49:55.068Z,46.65
2018-04-27T09:50:55.059Z,47.03
2018-04-27T09:51:55.056Z,47.99
2018-04-27T09:52:55.052Z,47.44
2018-04-27T09:53:55.047Z,48.79
2018-04-27T09:54:55.038Z,47.63
2018-04-27T09:55:55.029Z,47.53
2018-04-27T09:56:55.026Z,48.23
2018-04-27T09:57:55.020Z,46.69
2018-04-27T09:58:55.014Z,46.12
2018-04-27T09:59:55.008Z,46.98
2018-04-27T10:00:55.003Z,46.91
2018-04-27T10:01:54.998Z,45.76
2018-04-27T10:02:54.995Z,44.79
2018-04-27T10:03:54.987Z,45.85
2018-04-27T10:04:54.981Z,44.89
2018-04-27T10:05:54.974Z,45.18
2018-04-27T10:06:54.970Z,45.47
2018-04-27T10:07:54.968Z,45.66
2018-04-27T10:08:54.961Z,45.56
2018-04-27T10:09:54.962Z,46.04
2018-04-27T10:10:54.955Z,45.76
2018-04-27T10:11:54.945Z,44.79
2018-04-27T10:12:54.941Z,44.91
2018-04-27T10:13:54.939Z,45.78
2018-04-27T10:14:54.938Z,46.06
2018-04-27T10:15:54.928Z,44.62
2018-04-27T10:16:54.922Z,43.37
2018-04-27T10:17:54.920Z,43.08
2018-04-27T10:18:54.915Z,43.93
2018-04-27T10:19:54.910Z,45.10
2018-04-27T10:20:54.905Z,45.29
2018-04-27T10:21:54.902Z,44.05
2018-04-27T10:22:54.897Z,44.05
2018-04-27T10:23:54.892Z,44.82
2018-04-27T10:24:54.896Z,43.85
2018-04-27T10:25:54.888Z,44.14
2018-04-27T10:26:54.881Z,44.14
2018-04-27T10:27:54.876Z,45.03
2018-04-27T10:28:54.875Z,45.90
2018-04-27T10:29:54.868Z,44.93
2018-04-27T10:30:54.942Z,43.88
2018-04-27T10:31:54.858Z,43.30
2018-04-27T10:32:54.855Z,43.23
2018-04-27T10:33:54.849Z,42.82
2018-04-27T10:34:54.847Z,42.33
2018-04-27T10:35:54.841Z,43.13
2018-04-27T10:36:54.837Z,43.23
2018-04-27T10:37:54.834Z,43.23
2018-04-27T10:38:54.830Z,43.13
2018-04-27T10:39:54.826Z,42.65
2018-04-27T10:40:54.820Z,43.51
2018-04-27T10:41:54.815Z,43.41
2018-04-27T10:42:54.885Z,42.74
2018-04-27T10:43:54.812Z,42.55
2018-04-27T10:44:54.814Z,43.24
2018-04-27T10:45:54.803Z,42.46
2018-04-27T10:46:54.800Z,42.96
2018-04-27T10:47:54.796Z,42.86
2018-04-27T10:48:54.790Z,42.09
2018-04-27T10:49:54.786Z,41.61
2018-04-27T10:50:54.782Z,41.13
2018-04-27T10:51:54.780Z,41.51
2018-04-27T10:52:54.777Z,41.51
2018-04-27T10:53:54.771Z,41.68
2018-04-27T10:54:54.772Z,41.59
2018-04-27T10:55:54.767Z,42.16
2018-04-27T10:56:54.762Z,43.05
2018-04-27T10:57:54.760Z,42.86
2018-04-27T10:58:54.755Z,41.39
2018-04-27T10:59:54.752Z,42.26
2018-04-27T11:00:54.752Z,42.65
2018-04-27T11:01:54.747Z,42.09
2018-04-27T11:02:54.744Z,42.57
2018-04-27T11:03:54.740Z,41.89
2018-04-27T11:04:54.736Z,41.41
2018-04-27T11:05:54.740Z,41.99
2018-04-27T11:06:54.729Z,42.09
2018-04-27T11:07:54.726Z,41.34
2018-04-27T11:08:54.725Z,41.05
2018-04-27T11:09:54.723Z,40.57
2018-04-27T11:10:54.763Z,40.76
2018-04-27T11:11:54.715Z,41.03
2018-04-27T11:12:54.710Z,40.37
2018-04-27T11:13:54.707Z,41.34
2018-04-27T11:14:54.704Z,41.14
2018-04-27T11:15:54.699Z,41.05
2018-04-27T11:16:54.804Z,40.76
2018-04-27T11:17:54.694Z,39.53
2018-04-27T11:18:54.692Z,39.24
2018-04-27T11:19:54.689Z,38.83
2018-04-27T11:20:54.687Z,39.03
2018-04-27T11:21:54.681Z,39.51
2018-04-27T11:22:54.689Z,39.12
2018-04-27T11:23:54.680Z,39.22
2018-04-27T11:24:54.672Z,38.54
2018-04-27T11:25:54.674Z,38.54
2018-04-27T11:26:54.668Z,38.64
2018-04-27T11:27:54.663Z,38.74
2018-04-27T11:28:54.662Z,38.74
2018-04-27T11:29:54.659Z,38.64
2018-04-27T11:30:54.655Z,38.76
2018-04-27T11:31:54.651Z,38.74
2018-04-27T11:32:54.653Z,38.76
2018-04-27T11:33:54.646Z,38.74
2018-04-27T11:34:54.646Z,39.12
2018-04-27T11:35:54.646Z,39.12
2018-04-27T11:36:54.640Z,39.04
2018-04-27T11:37:54.637Z,38.85
2018-04-27T11:38:54.636Z,38.95
2018-04-27T11:39:54.627Z,39.72
2018-04-27T11:40:54.626Z,39.04
2018-04-27T11:41:54.624Z,38.46
2018-04-27T11:42:54.621Z,37.21
2018-04-27T11:43:54.616Z,37.02
2018-04-27T11:44:54.619Z,37.12
2018-04-27T11:45:54.609Z,37.13
2018-04-27T11:46:54.609Z,37.70
2018-04-27T11:47:54.605Z,38.01
2018-04-27T11:48:54.608Z,38.49
2018-04-27T11:49:54.601Z,39.26
2018-04-27T11:50:54.598Z,38.20
2018-04-27T11:51:54.601Z,36.85
2018-04-27T11:52:54.592Z,35.78
2018-04-27T11:53:54.592Z,34.82
2018-04-27T11:54:54.589Z,35.02
2018-04-27T11:55:54.589Z,35.11
2018-04-27T11:56:54.581Z,34.82
2018-04-27T11:57:54.581Z,33.95
2018-04-27T11:58:54.577Z,33.86
2018-04-27T11:59:54.577Z,34.82
2018-04-27T12:00:54.571Z,34.53
2018-04-27T12:01:54.572Z,35.40
2018-04-27T12:02:54.566Z,34.94
2018-04-27T12:03:54.563Z,35.52
2018-04-27T12:04:54.561Z,35.03
2018-04-27T12:05:54.558Z,34.64
2018-04-27T12:06:54.555Z,35.03
2018-04-27T12:07:54.554Z,34.74
2018-04-27T12:08:54.547Z,34.47
2018-04-27T12:09:54.551Z,34.56
2018-04-27T12:10:54.543Z,34.56
2018-04-27T12:11:54.543Z,34.56
2018-04-27T12:12:54.543Z,34.95
2018-04-27T12:13:54.537Z,35.34
2018-04-27T12:14:54.534Z,34.56
2018-04-27T12:15:54.533Z,34.95
2018-04-27T12:16:54.529Z,34.38
2018-04-27T12:17:54.530Z,33.98
2018-04-27T12:18:54.528Z,33.98
2018-04-27T12:19:54.529Z,33.89
2018-04-27T12:20:54.518Z,33.52
2018-04-27T12:21:54.520Z,33.80
2018-04-27T12:22:54.515Z,32.73
2018-04-27T12:23:54.515Z,33.50
2018-04-27T12:24:54.511Z,33.98
2018-04-27T12:25:54.509Z,34.56
2018-04-27T12:26:54.512Z,33.12
2018-04-27T12:27:54.517Z,32.92
2018-04-27T12:28:54.501Z,33.02
2018-04-27T12:29:54.499Z,33.02
2018-04-27T12:30:54.576Z,33.02
2018-04-27T12:31:54.610Z,32.92
2018-04-27T12:32:54.491Z,32.64
2018-04-27T12:33:54.488Z,32.73
2018-04-27T12:34:54.487Z,33.12
2018-04-27T12:35:54.486Z,33.50
2018-04-27T12:36:54.483Z,33.70
2018-04-27T12:37:54.485Z,33.50
2018-04-27T12:38:54.533Z,34.20
2018-04-27T12:39:54.475Z,34.20
2018-04-27T12:40:54.474Z,34.20
2018-04-27T12:41:54.551Z,34.39
2018-04-27T12:42:54.472Z,34.97
2018-04-27T12:43:54.468Z,34.78
2018-04-27T12:44:54.469Z,34.70
2018-04-27T12:45:54.465Z,34.02
2018-04-27T12:46:54.462Z,32.86
2018-04-27T12:47:54.460Z,34.02
2018-04-27T12:48:54.460Z,33.73
2018-04-27T12:49:54.455Z,33.83
2018-04-27T12:50:54.453Z,32.76
2018-04-27T12:51:54.452Z,31.99